Nearby METAR Reports

EGNX - East Midlands, United Kingdom
Distance: S 18mi, 28km
Updated: 21/09/2018 04:50
Light rain, Mostly cloudy
Light rain, Mostly cloudy
 Wind from W
Wind: W 28 mph , 44 km/h
Temperature: 9°C
Wind Chill: 4°C
Dew Point: 6°C
Humidity: 82%
Barometer: 998 hPa
Summary: Light rain
Clouds: Mostly cloudy
Visibility: 6 miles , 9 km
Cloud details: Few Clouds 366 m
Mostly cloudy 549 m
2018/09/21 03:50 EGNX 210350Z 26024KT 9000 -RA FEW012 BKN018 09/06 Q0998
EGCN - Doncaster Sheffi, United Kingdom
Distance: NNE 31mi, 50km
Updated: 21/09/2018 04:50
Mostly cloudy
Mostly cloudy
 Wind from W
Wind: W 22 mph , 35 km/h
Temperature: 9°C
Wind Chill: 5°C
Dew Point: 5°C
Humidity: 76%
Barometer: 995 hPa
Clouds: Mostly cloudy
Visibility: 6 miles , 10 km
Cloud details: Mostly cloudy 671 m
Mostly cloudy 823 m
2018/09/21 03:50 EGCN 210350Z 28019KT 9999 BKN022 BKN027 09/05 Q0995
EGYE - Barkston Heath R, United Kingdom
Distance: ESE 31mi, 50km
Updated: 20/09/2018 10:50
NOT Current
Light rain, Mostly cloudy
Light rain, Mostly cloudy
 Wind from S
Wind: S 12 mph , 19 km/h
Barometer: 1010 hPa
Summary: Light rain
Clouds: Mostly cloudy
Visibility: 6 miles , 10 km
Cloud details: Partly cloudy 152 m
Partly cloudy 610 m
Mostly cloudy 1524 m
2018/09/20 09:50 EGYE 200950Z 18010KT 9999 -RA SCT005 SCT020 BKN050 ///// Q1010 YLO1
 
EGXW - Waddington Raf, United Kingdom
Distance: ENE 33mi, 53km
Updated: 21/09/2018 04:50
Mostly cloudy
Mostly cloudy
 Wind from W
Wind: W 24 mph , 39 km/h, Gust: 43 mph , 69 km/h
Temperature: 10°C
Wind Chill: 6°C
Dew Point: 7°C
Humidity: 82%
Barometer: 995 hPa
Clouds: Mostly cloudy
Visibility: 6 miles , 10 km
Cloud details: Partly cloudy 671 m
Mostly cloudy 914 m
2018/09/21 03:50 EGXW 210350Z 26021G37KT 9999 SCT022 BKN030 10/07 Q0995 WHT
EGYD - Cranwell Raf, United Kingdom
Distance: E 33mi, 53km
Updated: 21/09/2018 04:50
Mostly cloudy
Mostly cloudy
 Wind from W
Wind: W 32 mph , 52 km/h
Temperature: 10°C
Wind Chill: 6°C
Dew Point: 6°C
Humidity: 76%
Barometer: 996 hPa
Clouds: Mostly cloudy
Visibility: 6 miles , 10 km
Cloud details: Mostly cloudy 671 m
2018/09/21 03:50 EGYD 210350Z AUTO 26028KT 9999 // BKN022/// 10/06 Q0996
EGXP - Scampton Raf, United Kingdom
Distance: ENE 35mi, 56km
Updated: 21/09/2018 04:50
Mostly cloudy
Mostly cloudy
 Wind from W
Wind: W 28 mph , 44 km/h
Temperature: 10°C
Wind Chill: 6°C
Dew Point: 7°C
Humidity: 82%
Barometer: 994 hPa
Clouds: Mostly cloudy
Visibility: 6 miles , 10 km
Cloud details: Mostly cloudy 671 m
2018/09/21 03:50 EGXP 210350Z AUTO 26024KT 9999 // BKN022/// 10/07 Q0994
 
EGCC - Manchester Intl, United Kingdom
Distance: WNW 45mi, 72km
Updated: 21/09/2018 04:50
Light rain, Thunderstorm
Light rain, Thunderstorm
 Wind from W
Wind: W 16 mph , 26 km/h, Gust: 28 mph , 44 km/h
Temperature: 9°C
Wind Chill: 6°C
Dew Point: 7°C
Humidity: 87%
Barometer: 997 hPa
Summary: Light rain
Clouds: Thunderstorm
Visibility: 3 miles , 5 km
Cloud details: Mostly cloudy 488 m
Mostly cloudy 823 m
2018/09/21 03:50 EGCC 210350Z AUTO 26014G24KT 5000 -RA BKN016/// BKN027/// //////CB 09/07 Q0997 TEMPO 3000 +SHRA BKN014
EGBB - Birmingham Airpo, United Kingdom
Distance: SSW 46mi, 74km
Updated: 21/09/2018 04:50
Mostly cloudy
Mostly cloudy
 Wind from W
Wind: W 13 mph , 20 km/h
Temperature: 10°C
Wind Chill: 7°C
Dew Point: 7°C
Humidity: 82%
Barometer: 1000 hPa
Clouds: Mostly cloudy
Visibility: 6 miles , 10 km
Cloud details: Mostly cloudy 1006 m
2018/09/21 03:50 EGBB 210350Z 27011KT 9999 BKN033 10/07 Q1000
EGXC - Coningsby Raf, United Kingdom
Distance: E 47mi, 75km
Updated: 21/09/2018 04:50
Few Clouds
Few Clouds
 Wind from W
Wind: W 24 mph , 39 km/h
Temperature: 11°C
Dew Point: 7°C
Humidity: 77%
Barometer: 995 hPa
Clouds: Few Clouds
Visibility: 6 miles , 10 km
Cloud details: Few Clouds 823 m
2018/09/21 03:50 EGXC 210350Z 26021KT 9999 FEW027 11/07 Q0995 BLU
 
EGXT - Wittering Raf, United Kingdom
Distance: SE 47mi, 75km
Updated: 21/09/2018 04:50
Mostly cloudy
Mostly cloudy
 Wind from W
Wind: W 30 mph , 48 km/h
Temperature: 10°C
Wind Chill: 6°C
Dew Point: 6°C
Humidity: 76%
Barometer: 997 hPa
Clouds: Mostly cloudy
Visibility: 6 miles , 10 km
Cloud details: Few Clouds 792 m
Mostly cloudy 1524 m
2018/09/21 03:50 EGXT 210350Z AUTO 26026KT 9999 FEW026/// BKN050/// 10/06 Q0997
EGNJ - Humberside, United Kingdom
Distance: NE 52mi, 83km
Updated: 21/09/2018 04:50
Mostly cloudy
Mostly cloudy
 Wind from W
Wind: W 25 mph , 41 km/h, Gust: 39 mph , 63 km/h
Temperature: 10°C
Wind Chill: 6°C
Dew Point: 5°C
Humidity: 71%
Barometer: 993 hPa
Clouds: Mostly cloudy
Visibility: 6 miles , 10 km
Cloud details: Mostly cloudy 732 m
Mostly cloudy 1463 m
2018/09/21 03:50 EGNJ 210350Z AUTO 26022G34KT 9999 BKN024/// BKN048/// 10/05 Q0993
EGWC - Cosford Raf, United Kingdom
Distance: SW 52mi, 83km
Updated: 19/09/2018 08:50
NOT Current
Few Clouds
Few Clouds
 Wind from S
Wind: S 24 mph , 39 km/h
Temperature: 16°C
Dew Point: 13°C
Humidity: 83%
Barometer: 1005 hPa
Clouds: Few Clouds
Visibility: 6 miles , 10 km
Cloud details: Few Clouds 610 m
2018/09/19 07:50 EGWC 190750Z 19021KT 9999 FEW020 16/13 Q1005 BLU
 
EGNM - Leeds And Bradfo, United Kingdom
Distance: NNW 57mi, 91km
Updated: 21/09/2018 04:50
Partly cloudy
Partly cloudy
 Wind from W
Wind: W 22 mph , 35 km/h
Temperature: 6°C
Wind Chill: 1°C
Dew Point: 4°C
Humidity: 87%
Barometer: 993 hPa
Clouds: Partly cloudy
Visibility: 6 miles , 10 km
Cloud details: Few Clouds 457 m
Partly cloudy 975 m
2018/09/21 03:50 EGNM 210350Z 27019KT 9999 FEW015 SCT032 06/04 Q0993
EGOS - Shawbury Raf, United Kingdom
Distance: WSW 60mi, 97km
Updated: 21/09/2018 04:50
Mostly cloudy
Mostly cloudy
 Wind from W
Wind: W 15 mph , 24 km/h
Temperature: 9°C
Wind Chill: 6°C
Dew Point: 6°C
Humidity: 82%
Barometer: 999 hPa
Clouds: Mostly cloudy
Visibility: 6 miles , 10 km
Cloud details: Few Clouds 762 m
Mostly cloudy 1341 m
2018/09/21 03:50 EGOS 210350Z AUTO 26013KT 9999 FEW025/// BKN044/// 09/06 Q0999
EGYH - Holbeach (aut), United Kingdom
Distance: ESE 62mi, 99km
Updated: 20/09/2018 20:50
NOT Current
Mostly cloudy
Mostly cloudy
 Wind from SSW
Wind: SSW 30 mph , 48 km/h
Temperature: 18°C
Dew Point: 14°C
Humidity: 78%
Barometer: 1000 hPa
Clouds: Mostly cloudy
Visibility: 6 miles , 10 km
Cloud details: Partly cloudy 914 m
Mostly cloudy 7620 m
2018/09/20 19:50 EGYH 201950Z 21026KT 9999 SCT030 BKN250 18/14 Q1000 BLU
 
EGXV - Leconfield (aut), United Kingdom
Distance: NNE 65mi, 105km
Updated: 21/09/2018 04:50
Mostly cloudy
Mostly cloudy
 Wind from W
Wind: W 24 mph , 39 km/h, Gust: 40 mph , 65 km/h
Temperature: 8°C
Wind Chill: 3°C
Dew Point: 4°C
Humidity: 76%
Barometer: 991 hPa
Clouds: Mostly cloudy
Cloud details: Mostly cloudy 518 m
Partly cloudy 884 m
Mostly cloudy 1036 m
2018/09/21 03:50 EGXV 210350Z AUTO 27021G35KT //// // BKN017/// SCT029/// BKN034/// 08/04 Q0991
EGXS - Donna Nook Raf, United Kingdom
Distance: ENE 66mi, 106km
Updated: 21/09/2018 04:50
Clear
Clear
 Wind from WSW
Wind: WSW 28 mph , 44 km/h, Gust: 45 mph , 72 km/h
Temperature: 10°C
Wind Chill: 6°C
Dew Point: 5°C
Humidity: 71%
Barometer: 992 hPa
Clouds: Clear
Visibility: 6 miles , 10 km
2018/09/21 03:50 EGXS 210350Z AUTO 24024G39KT 9999 // NCD 10/05 Q0992
EGGP - Liverpool Airpor, United Kingdom
Distance: WNW 67mi, 107km
Updated: 21/09/2018 03:50
NOT Current
Rain, Mostly cloudy
Rain, Mostly cloudy
 Wind from W
Wind: W 25 mph , 41 km/h
Temperature: 10°C
Wind Chill: 6°C
Dew Point: 8°C
Humidity: 88%
Barometer: 997 hPa
Summary: Rain
Clouds: Mostly cloudy
Visibility: 6 miles , 10 km
Cloud details: Mostly cloudy 457 m
Mostly cloudy 1189 m
2018/09/21 02:50 EGGP 210250Z 28022KT 9999 RA BKN015 BKN039 10/08 Q0997
 
EGXU - Linton-On-Ouse R, United Kingdom
Distance: N 68mi, 109km
Updated: 21/09/2018 04:50
Mostly cloudy
Mostly cloudy
 Wind from W
Wind: W 22 mph , 35 km/h
Temperature: 8°C
Wind Chill: 3°C
Dew Point: 4°C
Humidity: 76%
Barometer: 993 hPa
Clouds: Mostly cloudy
Visibility: 6 miles , 10 km
Cloud details: Partly cloudy 975 m
Mostly cloudy 1341 m
2018/09/21 03:50 EGXU 210350Z AUTO 28019KT 9999 // SCT032/// BKN044/// 08/04 Q0993
EGNR - Hawarden (aut), United Kingdom
Distance: W 70mi, 112km
Updated: 20/09/2018 20:50
NOT Current
Light rain, Mostly cloudy
Light rain, Mostly cloudy
 Wind from S
Wind: S 13 mph , 20 km/h
Temperature: 16°C
Dew Point: 15°C
Humidity: 94%
Barometer: 993 hPa
Summary: Light rain
Clouds: Mostly cloudy
Visibility: 6 miles , 9 km
Cloud details: Mostly cloudy 762 m
2018/09/20 19:50 EGNR 201950Z 17011KT 9000 -RA BKN025 16/15 Q0993